sensor_id;sensor_type;location;lat;lon;timestamp;P1;durP1;ratioP1;P2;durP2;ratioP2
67500;SDS011;54349;52.528;19.760;2023-01-10T00:02:04;11.40;;;7.70;;
67500;SDS011;54349;52.528;19.760;2023-01-10T00:04:33;12.00;;;7.70;;
67500;SDS011;54349;52.528;19.760;2023-01-10T00:07:01;11.50;;;7.60;;
67500;SDS011;54349;52.528;19.760;2023-01-10T00:09:29;10.80;;;7.30;;
67500;SDS011;54349;52.528;19.760;2023-01-10T00:11:57;10.70;;;7.10;;
67500;SDS011;54349;52.528;19.760;2023-01-10T00:14:43;11.90;;;7.50;;
67500;SDS011;54349;52.528;19.760;2023-01-10T00:17:12;11.00;;;6.90;;
67500;SDS011;54349;52.528;19.760;2023-01-10T00:19:40;9.70;;;6.40;;
67500;SDS011;54349;52.528;19.760;2023-01-10T00:22:11;10.10;;;6.70;;
67500;SDS011;54349;52.528;19.760;2023-01-10T00:24:39;11.80;;;7.10;;
67500;SDS011;54349;52.528;19.760;2023-01-10T00:27:08;11.00;;;7.10;;
67500;SDS011;54349;52.528;19.760;2023-01-10T00:29:40;9.60;;;6.60;;
67500;SDS011;54349;52.528;19.760;2023-01-10T00:32:08;10.10;;;6.90;;
67500;SDS011;54349;52.528;19.760;2023-01-10T00:34:36;9.60;;;6.70;;
67500;SDS011;54349;52.528;19.760;2023-01-10T00:37:04;10.40;;;6.60;;
67500;SDS011;54349;52.528;19.760;2023-01-10T00:39:32;10.50;;;6.60;;
67500;SDS011;54349;52.528;19.760;2023-01-10T00:41:59;10.00;;;6.80;;
67500;SDS011;54349;52.528;19.760;2023-01-10T00:44:47;11.10;;;6.50;;
67500;SDS011;54349;52.528;19.760;2023-01-10T00:47:15;10.20;;;6.50;;
67500;SDS011;54349;52.528;19.760;2023-01-10T00:49:45;10.50;;;6.70;;
67500;SDS011;54349;52.528;19.760;2023-01-10T00:52:13;9.90;;;7.10;;
67500;SDS011;54349;52.528;19.760;2023-01-10T00:54:42;9.90;;;6.80;;
67500;SDS011;54349;52.528;19.760;2023-01-10T00:57:10;9.60;;;6.20;;
67500;SDS011;54349;52.528;19.760;2023-01-10T00:59:38;11.20;;;6.90;;
67500;SDS011;54349;52.528;19.760;2023-01-10T01:02:06;9.40;;;6.40;;
67500;SDS011;54349;52.528;19.760;2023-01-10T01:04:34;10.40;;;6.30;;
67500;SDS011;54349;52.528;19.760;2023-01-10T01:07:02;9.80;;;6.70;;
67500;SDS011;54349;52.528;19.760;2023-01-10T01:09:31;10.50;;;6.50;;
67500;SDS011;54349;52.528;19.760;2023-01-10T01:11:59;10.60;;;6.40;;
67500;SDS011;54349;52.528;19.760;2023-01-10T01:14:27;10.40;;;6.80;;
67500;SDS011;54349;52.528;19.760;2023-01-10T01:16:55;10.60;;;6.50;;
67500;SDS011;54349;52.528;19.760;2023-01-10T01:19:24;9.90;;;6.50;;
67500;SDS011;54349;52.528;19.760;2023-01-10T01:21:52;9.40;;;6.40;;
67500;SDS011;54349;52.528;19.760;2023-01-10T01:24:20;11.50;;;7.10;;
67500;SDS011;54349;52.528;19.760;2023-01-10T01:26:49;10.00;;;6.90;;
67500;SDS011;54349;52.528;19.760;2023-01-10T01:29:17;11.00;;;6.90;;
67500;SDS011;54349;52.528;19.760;2023-01-10T01:31:45;10.60;;;7.10;;
67500;SDS011;54349;52.528;19.760;2023-01-10T01:34:13;9.10;;;6.10;;
67500;SDS011;54349;52.528;19.760;2023-01-10T01:36:42;10.00;;;6.40;;
67500;SDS011;54349;52.528;19.760;2023-01-10T01:39:11;10.60;;;6.70;;
67500;SDS011;54349;52.528;19.760;2023-01-10T01:41:39;10.50;;;6.90;;
67500;SDS011;54349;52.528;19.760;2023-01-10T01:44:34;10.40;;;6.80;;
67500;SDS011;54349;52.528;19.760;2023-01-10T01:47:16;10.10;;;6.60;;
67500;SDS011;54349;52.528;19.760;2023-01-10T01:49:53;10.70;;;7.10;;
67500;SDS011;54349;52.528;19.760;2023-01-10T01:52:26;11.70;;;7.70;;
67500;SDS011;54349;52.528;19.760;2023-01-10T01:55:02;10.00;;;6.40;;
67500;SDS011;54349;52.528;19.760;2023-01-10T01:57:32;10.50;;;6.90;;
67500;SDS011;54349;52.528;19.760;2023-01-10T02:00:02;12.40;;;7.80;;
67500;SDS011;54349;52.528;19.760;2023-01-10T02:02:43;10.20;;;7.00;;
67500;SDS011;54349;52.528;19.760;2023-01-10T02:05:31;9.70;;;6.90;;
67500;SDS011;54349;52.528;19.760;2023-01-10T02:08:02;10.30;;;6.80;;
67500;SDS011;54349;52.528;19.760;2023-01-10T02:13:26;10.70;;;6.70;;
67500;SDS011;54349;52.528;19.760;2023-01-10T02:15:55;9.00;;;6.30;;
67500;SDS011;54349;52.528;19.760;2023-01-10T02:18:23;11.30;;;7.50;;
67500;SDS011;54349;52.528;19.760;2023-01-10T02:33:23;11.30;;;6.70;;
67500;SDS011;54349;52.528;19.760;2023-01-10T02:36:04;10.80;;;6.60;;
67500;SDS011;54349;52.528;19.760;2023-01-10T02:42:11;9.70;;;6.20;;
67500;SDS011;54349;52.528;19.760;2023-01-10T02:45:20;9.70;;;6.50;;
67500;SDS011;54349;52.528;19.760;2023-01-10T02:47:56;10.00;;;6.20;;
67500;SDS011;54349;52.528;19.760;2023-01-10T03:11:13;10.30;;;6.30;;
67500;SDS011;54349;52.528;19.760;2023-01-10T03:13:55;10.20;;;6.70;;
67500;SDS011;54349;52.528;19.760;2023-01-10T03:16:29;10.40;;;6.90;;
67500;SDS011;54349;52.528;19.760;2023-01-10T03:19:10;11.00;;;7.00;;
67500;SDS011;54349;52.528;19.760;2023-01-10T03:21:42;10.30;;;6.80;;
67500;SDS011;54349;52.528;19.760;2023-01-10T03:24:26;8.80;;;6.20;;
67500;SDS011;54349;52.528;19.760;2023-01-10T03:30:02;10.10;;;6.60;;
67500;SDS011;54349;52.528;19.760;2023-01-10T03:32:48;9.50;;;6.30;;
67500;SDS011;54349;52.528;19.760;2023-01-10T03:35:19;9.90;;;6.90;;
67500;SDS011;54349;52.528;19.760;2023-01-10T03:38:05;10.90;;;6.40;;
67500;SDS011;54349;52.528;19.760;2023-01-10T03:40:52;9.80;;;7.00;;
67500;SDS011;54349;52.528;19.760;2023-01-10T03:43:46;9.30;;;6.50;;
67500;SDS011;54349;52.528;19.760;2023-01-10T03:46:50;8.90;;;6.30;;
67500;SDS011;54349;52.528;19.760;2023-01-10T03:49:26;10.20;;;6.90;;
67500;SDS011;54349;52.528;19.760;2023-01-10T03:51:56;10.80;;;6.90;;
67500;SDS011;54349;52.528;19.760;2023-01-10T03:54:27;9.40;;;6.40;;
67500;SDS011;54349;52.528;19.760;2023-01-10T03:56:55;10.30;;;6.90;;
67500;SDS011;54349;52.528;19.760;2023-01-10T03:59:26;11.40;;;7.40;;
67500;SDS011;54349;52.528;19.760;2023-01-10T04:01:55;10.30;;;6.90;;
67500;SDS011;54349;52.528;19.760;2023-01-10T04:04:23;11.50;;;7.00;;
67500;SDS011;54349;52.528;19.760;2023-01-10T04:06:51;11.40;;;7.00;;
67500;SDS011;54349;52.528;19.760;2023-01-10T04:09:19;10.50;;;7.00;;
67500;SDS011;54349;52.528;19.760;2023-01-10T04:11:47;12.20;;;7.50;;
67500;SDS011;54349;52.528;19.760;2023-01-10T04:14:16;9.90;;;6.80;;
67500;SDS011;54349;52.528;19.760;2023-01-10T04:16:44;10.60;;;7.40;;
67500;SDS011;54349;52.528;19.760;2023-01-10T04:19:12;11.20;;;7.50;;
67500;SDS011;54349;52.528;19.760;2023-01-10T04:21:40;10.30;;;6.70;;
67500;SDS011;54349;52.528;19.760;2023-01-10T04:24:08;10.80;;;7.40;;
67500;SDS011;54349;52.528;19.760;2023-01-10T04:26:37;10.60;;;7.00;;
67500;SDS011;54349;52.528;19.760;2023-01-10T04:29:05;11.90;;;7.50;;
67500;SDS011;54349;52.528;19.760;2023-01-10T04:31:33;11.60;;;7.60;;
67500;SDS011;54349;52.528;19.760;2023-01-10T04:34:01;10.70;;;7.10;;
67500;SDS011;54349;52.528;19.760;2023-01-10T04:36:30;11.40;;;7.30;;
67500;SDS011;54349;52.528;19.760;2023-01-10T04:38:58;11.00;;;7.60;;
67500;SDS011;54349;52.528;19.760;2023-01-10T04:41:25;11.20;;;7.50;;
67500;SDS011;54349;52.528;19.760;2023-01-10T04:43:54;10.90;;;7.20;;
67500;SDS011;54349;52.528;19.760;2023-01-10T04:46:22;11.10;;;7.70;;
67500;SDS011;54349;52.528;19.760;2023-01-10T04:48:50;10.70;;;7.10;;
67500;SDS011;54349;52.528;19.760;2023-01-10T04:51:19;10.30;;;7.10;;
67500;SDS011;54349;52.528;19.760;2023-01-10T04:53:47;12.60;;;7.60;;
67500;SDS011;54349;52.528;19.760;2023-01-10T04:56:17;11.90;;;8.00;;
67500;SDS011;54349;52.528;19.760;2023-01-10T04:58:48;11.40;;;7.20;;
67500;SDS011;54349;52.528;19.760;2023-01-10T05:01:22;11.60;;;7.90;;
67500;SDS011;54349;52.528;19.760;2023-01-10T05:03:54;11.20;;;7.40;;
67500;SDS011;54349;52.528;19.760;2023-01-10T05:06:23;11.80;;;7.10;;
67500;SDS011;54349;52.528;19.760;2023-01-10T05:08:51;11.90;;;7.70;;
67500;SDS011;54349;52.528;19.760;2023-01-10T05:11:19;10.90;;;7.50;;
67500;SDS011;54349;52.528;19.760;2023-01-10T05:13:47;11.30;;;7.30;;
67500;SDS011;54349;52.528;19.760;2023-01-10T05:16:16;10.30;;;7.10;;
67500;SDS011;54349;52.528;19.760;2023-01-10T05:18:45;11.20;;;7.00;;
67500;SDS011;54349;52.528;19.760;2023-01-10T05:21:14;9.80;;;6.70;;
67500;SDS011;54349;52.528;19.760;2023-01-10T05:23:42;10.10;;;6.70;;
67500;SDS011;54349;52.528;19.760;2023-01-10T05:26:16;12.40;;;7.00;;
67500;SDS011;54349;52.528;19.760;2023-01-10T05:28:46;11.70;;;7.40;;
67500;SDS011;54349;52.528;19.760;2023-01-10T05:31:16;10.00;;;6.60;;
67500;SDS011;54349;52.528;19.760;2023-01-10T05:33:48;12.30;;;7.70;;
67500;SDS011;54349;52.528;19.760;2023-01-10T05:36:18;11.40;;;7.80;;
67500;SDS011;54349;52.528;19.760;2023-01-10T05:38:46;12.10;;;8.00;;
67500;SDS011;54349;52.528;19.760;2023-01-10T05:41:14;12.90;;;8.00;;
67500;SDS011;54349;52.528;19.760;2023-01-10T05:43:42;12.00;;;8.00;;
67500;SDS011;54349;52.528;19.760;2023-01-10T05:46:10;12.50;;;8.10;;
67500;SDS011;54349;52.528;19.760;2023-01-10T05:48:39;12.10;;;8.50;;
67500;SDS011;54349;52.528;19.760;2023-01-10T05:51:07;13.20;;;8.00;;
67500;SDS011;54349;52.528;19.760;2023-01-10T05:53:35;13.10;;;8.30;;
67500;SDS011;54349;52.528;19.760;2023-01-10T05:56:03;14.40;;;8.50;;
67500;SDS011;54349;52.528;19.760;2023-01-10T05:58:34;12.70;;;8.50;;
67500;SDS011;54349;52.528;19.760;2023-01-10T06:01:03;12.20;;;8.00;;
67500;SDS011;54349;52.528;19.760;2023-01-10T06:03:31;13.70;;;8.90;;
67500;SDS011;54349;52.528;19.760;2023-01-10T06:05:59;12.70;;;8.20;;
67500;SDS011;54349;52.528;19.760;2023-01-10T06:08:30;13.80;;;8.30;;
67500;SDS011;54349;52.528;19.760;2023-01-10T06:10:58;13.30;;;8.20;;
67500;SDS011;54349;52.528;19.760;2023-01-10T06:13:26;14.70;;;8.90;;
67500;SDS011;54349;52.528;19.760;2023-01-10T06:15:54;13.70;;;8.40;;
67500;SDS011;54349;52.528;19.760;2023-01-10T06:18:22;13.10;;;8.40;;
67500;SDS011;54349;52.528;19.760;2023-01-10T06:20:51;13.60;;;8.10;;
67500;SDS011;54349;52.528;19.760;2023-01-10T06:23:19;14.30;;;8.50;;
67500;SDS011;54349;52.528;19.760;2023-01-10T06:25:48;15.10;;;8.40;;
67500;SDS011;54349;52.528;19.760;2023-01-10T06:28:16;14.20;;;8.40;;
67500;SDS011;54349;52.528;19.760;2023-01-10T06:30:44;15.50;;;8.50;;
67500;SDS011;54349;52.528;19.760;2023-01-10T06:33:12;13.50;;;7.90;;
67500;SDS011;54349;52.528;19.760;2023-01-10T06:35:42;11.60;;;7.60;;
67500;SDS011;54349;52.528;19.760;2023-01-10T06:38:10;13.00;;;7.40;;
67500;SDS011;54349;52.528;19.760;2023-01-10T06:40:38;13.50;;;7.90;;
67500;SDS011;54349;52.528;19.760;2023-01-10T06:43:06;11.90;;;7.80;;
67500;SDS011;54349;52.528;19.760;2023-01-10T06:45:34;13.40;;;7.90;;
67500;SDS011;54349;52.528;19.760;2023-01-10T06:48:03;11.50;;;6.80;;
67500;SDS011;54349;52.528;19.760;2023-01-10T06:50:31;12.70;;;8.00;;
67500;SDS011;54349;52.528;19.760;2023-01-10T06:53:02;11.80;;;7.30;;
67500;SDS011;54349;52.528;19.760;2023-01-10T06:55:31;12.70;;;7.60;;
67500;SDS011;54349;52.528;19.760;2023-01-10T06:58:01;13.80;;;7.80;;
67500;SDS011;54349;52.528;19.760;2023-01-10T07:00:31;13.40;;;7.50;;
67500;SDS011;54349;52.528;19.760;2023-01-10T07:03:00;12.10;;;7.40;;
67500;SDS011;54349;52.528;19.760;2023-01-10T07:05:29;12.60;;;7.90;;
67500;SDS011;54349;52.528;19.760;2023-01-10T07:07:59;11.30;;;7.30;;
67500;SDS011;54349;52.528;19.760;2023-01-10T07:10:28;13.40;;;7.80;;
67500;SDS011;54349;52.528;19.760;2023-01-10T07:12:57;12.90;;;7.90;;
67500;SDS011;54349;52.528;19.760;2023-01-10T07:15:26;13.80;;;7.40;;
67500;SDS011;54349;52.528;19.760;2023-01-10T07:17:56;10.10;;;6.70;;
67500;SDS011;54349;52.528;19.760;2023-01-10T07:20:27;12.20;;;7.80;;
67500;SDS011;54349;52.528;19.760;2023-01-10T07:22:57;10.70;;;7.10;;
67500;SDS011;54349;52.528;19.760;2023-01-10T07:25:27;11.80;;;7.10;;
67500;SDS011;54349;52.528;19.760;2023-01-10T07:27:57;12.60;;;7.50;;
67500;SDS011;54349;52.528;19.760;2023-01-10T07:30:25;11.00;;;7.00;;
67500;SDS011;54349;52.528;19.760;2023-01-10T07:32:56;13.40;;;7.90;;
67500;SDS011;54349;52.528;19.760;2023-01-10T07:35:25;10.30;;;7.00;;
67500;SDS011;54349;52.528;19.760;2023-01-10T07:37:57;13.10;;;7.20;;
67500;SDS011;54349;52.528;19.760;2023-01-10T07:40:26;11.30;;;7.10;;
67500;SDS011;54349;52.528;19.760;2023-01-10T07:42:59;11.50;;;7.20;;
67500;SDS011;54349;52.528;19.760;2023-01-10T07:45:29;11.80;;;7.50;;
67500;SDS011;54349;52.528;19.760;2023-01-10T07:47:58;12.40;;;7.80;;
67500;SDS011;54349;52.528;19.760;2023-01-10T07:50:30;12.20;;;7.60;;
67500;SDS011;54349;52.528;19.760;2023-01-10T07:53:02;11.30;;;7.00;;
67500;SDS011;54349;52.528;19.760;2023-01-10T07:55:33;12.20;;;7.40;;
67500;SDS011;54349;52.528;19.760;2023-01-10T07:58:03;11.10;;;7.30;;
67500;SDS011;54349;52.528;19.760;2023-01-10T08:00:34;12.30;;;7.40;;
67500;SDS011;54349;52.528;19.760;2023-01-10T08:03:02;10.50;;;7.00;;
67500;SDS011;54349;52.528;19.760;2023-01-10T08:05:31;11.30;;;7.20;;
67500;SDS011;54349;52.528;19.760;2023-01-10T08:08:10;11.80;;;7.40;;
67500;SDS011;54349;52.528;19.760;2023-01-10T08:10:39;12.30;;;7.60;;
67500;SDS011;54349;52.528;19.760;2023-01-10T08:13:08;11.20;;;7.40;;
67500;SDS011;54349;52.528;19.760;2023-01-10T08:15:46;10.10;;;6.70;;
67500;SDS011;54349;52.528;19.760;2023-01-10T08:18:19;11.80;;;6.90;;
67500;SDS011;54349;52.528;19.760;2023-01-10T08:20:49;12.10;;;7.10;;
67500;SDS011;54349;52.528;19.760;2023-01-10T08:23:19;12.70;;;8.30;;
67500;SDS011;54349;52.528;19.760;2023-01-10T08:25:48;11.70;;;7.40;;
67500;SDS011;54349;52.528;19.760;2023-01-10T08:28:18;11.90;;;7.50;;
67500;SDS011;54349;52.528;19.760;2023-01-10T08:30:47;12.70;;;7.80;;
67500;SDS011;54349;52.528;19.760;2023-01-10T08:33:17;11.80;;;7.40;;
67500;SDS011;54349;52.528;19.760;2023-01-10T08:35:45;11.60;;;7.30;;
67500;SDS011;54349;52.528;19.760;2023-01-10T08:38:13;11.40;;;7.20;;
67500;SDS011;54349;52.528;19.760;2023-01-10T08:40:42;12.60;;;7.60;;
67500;SDS011;54349;52.528;19.760;2023-01-10T08:43:11;11.80;;;7.20;;
67500;SDS011;54349;52.528;19.760;2023-01-10T08:45:40;11.10;;;7.40;;
67500;SDS011;54349;52.528;19.760;2023-01-10T08:48:08;13.40;;;8.50;;
67500;SDS011;54349;52.528;19.760;2023-01-10T08:50:37;13.40;;;8.90;;
67500;SDS011;54349;52.528;19.760;2023-01-10T08:53:05;13.50;;;8.30;;
67500;SDS011;54349;52.528;19.760;2023-01-10T08:55:33;14.40;;;8.30;;
67500;SDS011;54349;52.528;19.760;2023-01-10T08:58:04;13.00;;;8.80;;
67500;SDS011;54349;52.528;19.760;2023-01-10T09:00:32;15.20;;;9.20;;
67500;SDS011;54349;52.528;19.760;2023-01-10T09:03:00;13.70;;;8.60;;
67500;SDS011;54349;52.528;19.760;2023-01-10T09:05:28;14.00;;;8.60;;
67500;SDS011;54349;52.528;19.760;2023-01-10T09:08:00;14.60;;;9.00;;
67500;SDS011;54349;52.528;19.760;2023-01-10T09:10:29;13.40;;;8.60;;
67500;SDS011;54349;52.528;19.760;2023-01-10T09:12:58;13.20;;;8.50;;
67500;SDS011;54349;52.528;19.760;2023-01-10T09:15:33;14.30;;;8.90;;
67500;SDS011;54349;52.528;19.760;2023-01-10T09:18:05;12.80;;;8.00;;
67500;SDS011;54349;52.528;19.760;2023-01-10T09:20:35;12.60;;;8.20;;
67500;SDS011;54349;52.528;19.760;2023-01-10T09:23:10;14.40;;;8.90;;
67500;SDS011;54349;52.528;19.760;2023-01-10T09:25:46;13.50;;;8.40;;
67500;SDS011;54349;52.528;19.760;2023-01-10T09:28:16;13.60;;;8.30;;
67500;SDS011;54349;52.528;19.760;2023-01-10T09:30:45;13.40;;;8.40;;
67500;SDS011;54349;52.528;19.760;2023-01-10T09:33:15;13.20;;;8.20;;
67500;SDS011;54349;52.528;19.760;2023-01-10T09:35:43;12.30;;;8.10;;
67500;SDS011;54349;52.528;19.760;2023-01-10T09:38:15;12.80;;;7.80;;
67500;SDS011;54349;52.528;19.760;2023-01-10T09:41:45;11.20;;;7.60;;
67500;SDS011;54349;52.528;19.760;2023-01-10T09:47:07;13.00;;;8.20;;
67500;SDS011;54349;52.528;19.760;2023-01-10T09:52:42;13.10;;;8.20;;
67500;SDS011;54349;52.528;19.760;2023-01-10T09:55:22;12.50;;;8.60;;
67500;SDS011;54349;52.528;19.760;2023-01-10T09:57:53;12.90;;;7.90;;
67500;SDS011;54349;52.528;19.760;2023-01-10T10:00:41;11.70;;;7.60;;
67500;SDS011;54349;52.528;19.760;2023-01-10T10:06:18;12.60;;;7.90;;
67500;SDS011;54349;52.528;19.760;2023-01-10T10:08:49;11.00;;;7.40;;
67500;SDS011;54349;52.528;19.760;2023-01-10T10:17:09;12.70;;;8.30;;
67500;SDS011;54349;52.528;19.760;2023-01-10T10:26:07;11.90;;;8.00;;
67500;SDS011;54349;52.528;19.760;2023-01-10T10:34:57;12.80;;;8.20;;
67500;SDS011;54349;52.528;19.760;2023-01-10T10:37:34;10.60;;;7.50;;
67500;SDS011;54349;52.528;19.760;2023-01-10T10:42:40;12.00;;;7.60;;
67500;SDS011;54349;52.528;19.760;2023-01-10T10:45:28;11.80;;;8.10;;
67500;SDS011;54349;52.528;19.760;2023-01-10T10:48:28;11.50;;;7.70;;
67500;SDS011;54349;52.528;19.760;2023-01-10T10:51:01;13.50;;;8.80;;
67500;SDS011;54349;52.528;19.760;2023-01-10T10:53:34;12.20;;;7.80;;
67500;SDS011;54349;52.528;19.760;2023-01-10T10:56:06;12.80;;;8.40;;
67500;SDS011;54349;52.528;19.760;2023-01-10T10:58:42;12.60;;;8.00;;
67500;SDS011;54349;52.528;19.760;2023-01-10T11:01:13;11.90;;;7.30;;
67500;SDS011;54349;52.528;19.760;2023-01-10T11:03:47;11.60;;;8.10;;
67500;SDS011;54349;52.528;19.760;2023-01-10T11:06:24;13.10;;;7.80;;
67500;SDS011;54349;52.528;19.760;2023-01-10T11:08:59;13.00;;;8.90;;
67500;SDS011;54349;52.528;19.760;2023-01-10T11:11:37;12.90;;;8.80;;
67500;SDS011;54349;52.528;19.760;2023-01-10T11:14:43;13.50;;;8.30;;
67500;SDS011;54349;52.528;19.760;2023-01-10T11:17:21;15.00;;;8.20;;
67500;SDS011;54349;52.528;19.760;2023-01-10T11:22:22;12.10;;;8.10;;
67500;SDS011;54349;52.528;19.760;2023-01-10T11:24:59;13.10;;;9.20;;
67500;SDS011;54349;52.528;19.760;2023-01-10T11:27:45;12.40;;;8.20;;
67500;SDS011;54349;52.528;19.760;2023-01-10T11:30:21;13.90;;;8.80;;
67500;SDS011;54349;52.528;19.760;2023-01-10T11:33:06;12.00;;;8.10;;
67500;SDS011;54349;52.528;19.760;2023-01-10T11:35:37;12.90;;;8.80;;
67500;SDS011;54349;52.528;19.760;2023-01-10T11:38:19;13.50;;;8.90;;
67500;SDS011;54349;52.528;19.760;2023-01-10T11:40:57;12.00;;;8.00;;
67500;SDS011;54349;52.528;19.760;2023-01-10T11:46:01;12.70;;;8.90;;
67500;SDS011;54349;52.528;19.760;2023-01-10T11:48:43;12.90;;;8.50;;
67500;SDS011;54349;52.528;19.760;2023-01-10T11:51:38;12.40;;;8.40;;
67500;SDS011;54349;52.528;19.760;2023-01-10T11:54:24;13.90;;;8.40;;
67500;SDS011;54349;52.528;19.760;2023-01-10T12:00:11;12.20;;;8.20;;
67500;SDS011;54349;52.528;19.760;2023-01-10T12:02:42;12.30;;;8.50;;
67500;SDS011;54349;52.528;19.760;2023-01-10T12:05:19;11.80;;;8.00;;
67500;SDS011;54349;52.528;19.760;2023-01-10T12:10:26;10.50;;;7.70;;
67500;SDS011;54349;52.528;19.760;2023-01-10T12:12:58;13.10;;;7.50;;
67500;SDS011;54349;52.528;19.760;2023-01-10T12:15:34;12.00;;;7.90;;
67500;SDS011;54349;52.528;19.760;2023-01-10T12:18:04;11.60;;;7.50;;
67500;SDS011;54349;52.528;19.760;2023-01-10T12:20:47;11.50;;;7.70;;
67500;SDS011;54349;52.528;19.760;2023-01-10T12:23:21;11.40;;;8.00;;
67500;SDS011;54349;52.528;19.760;2023-01-10T12:25:52;11.50;;;8.00;;
67500;SDS011;54349;52.528;19.760;2023-01-10T12:28:40;11.70;;;7.60;;
67500;SDS011;54349;52.528;19.760;2023-01-10T12:31:14;12.00;;;8.20;;
67500;SDS011;54349;52.528;19.760;2023-01-10T12:33:45;12.20;;;7.60;;
67500;SDS011;54349;52.528;19.760;2023-01-10T12:36:35;12.10;;;8.00;;
67500;SDS011;54349;52.528;19.760;2023-01-10T12:39:35;11.80;;;7.70;;
67500;SDS011;54349;52.528;19.760;2023-01-10T12:45:04;12.00;;;7.50;;
67500;SDS011;54349;52.528;19.760;2023-01-10T12:47:47;11.50;;;7.20;;
67500;SDS011;54349;52.528;19.760;2023-01-10T12:53:02;10.80;;;7.80;;
67500;SDS011;54349;52.528;19.760;2023-01-10T12:55:56;11.40;;;7.20;;
67500;SDS011;54349;52.528;19.760;2023-01-10T13:01:16;11.30;;;7.60;;
67500;SDS011;54349;52.528;19.760;2023-01-10T13:03:53;10.90;;;7.40;;
67500;SDS011;54349;52.528;19.760;2023-01-10T13:06:37;10.50;;;6.90;;
67500;SDS011;54349;52.528;19.760;2023-01-10T13:09:20;11.00;;;7.40;;
67500;SDS011;54349;52.528;19.760;2023-01-10T13:12:05;12.60;;;7.90;;
67500;SDS011;54349;52.528;19.760;2023-01-10T13:14:45;11.00;;;7.60;;
67500;SDS011;54349;52.528;19.760;2023-01-10T13:22:50;11.30;;;6.90;;
67500;SDS011;54349;52.528;19.760;2023-01-10T13:25:24;9.80;;;7.00;;
67500;SDS011;54349;52.528;19.760;2023-01-10T13:28:04;10.40;;;7.10;;
67500;SDS011;54349;52.528;19.760;2023-01-10T13:30:37;11.50;;;7.50;;
67500;SDS011;54349;52.528;19.760;2023-01-10T13:33:25;12.00;;;7.70;;
67500;SDS011;54349;52.528;19.760;2023-01-10T13:36:18;11.50;;;7.50;;
67500;SDS011;54349;52.528;19.760;2023-01-10T13:52:51;10.90;;;7.00;;
67500;SDS011;54349;52.528;19.760;2023-01-10T14:00:50;11.20;;;7.10;;
67500;SDS011;54349;52.528;19.760;2023-01-10T14:03:55;11.20;;;6.90;;
67500;SDS011;54349;52.528;19.760;2023-01-10T14:08:58;10.30;;;7.00;;
67500;SDS011;54349;52.528;19.760;2023-01-10T14:11:48;11.50;;;7.10;;
67500;SDS011;54349;52.528;19.760;2023-01-10T14:14:31;10.10;;;6.70;;
67500;SDS011;54349;52.528;19.760;2023-01-10T14:17:31;11.50;;;6.80;;
67500;SDS011;54349;52.528;19.760;2023-01-10T14:22:39;11.00;;;7.00;;
67500;SDS011;54349;52.528;19.760;2023-01-10T14:25:19;11.30;;;6.80;;
67500;SDS011;54349;52.528;19.760;2023-01-10T14:27:50;11.00;;;6.70;;
67500;SDS011;54349;52.528;19.760;2023-01-10T14:30:30;11.00;;;7.50;;
67500;SDS011;54349;52.528;19.760;2023-01-10T14:33:17;10.80;;;7.00;;
67500;SDS011;54349;52.528;19.760;2023-01-10T14:35:52;9.90;;;6.50;;
67500;SDS011;54349;52.528;19.760;2023-01-10T14:38:33;10.90;;;6.60;;
67500;SDS011;54349;52.528;19.760;2023-01-10T14:41:38;10.70;;;6.50;;
67500;SDS011;54349;52.528;19.760;2023-01-10T14:44:30;9.00;;;6.40;;
67500;SDS011;54349;52.528;19.760;2023-01-10T14:50:00;10.00;;;6.60;;
67500;SDS011;54349;52.528;19.760;2023-01-10T14:52:29;9.90;;;6.40;;
67500;SDS011;54349;52.528;19.760;2023-01-10T14:55:13;10.00;;;6.30;;
67500;SDS011;54349;52.528;19.760;2023-01-10T14:57:58;9.50;;;6.50;;
67500;SDS011;54349;52.528;19.760;2023-01-10T15:00:33;10.40;;;6.80;;
67500;SDS011;54349;52.528;19.760;2023-01-10T15:03:03;10.70;;;7.10;;
67500;SDS011;54349;52.528;19.760;2023-01-10T15:05:43;11.90;;;7.00;;
67500;SDS011;54349;52.528;19.760;2023-01-10T15:08:23;10.10;;;6.80;;
67500;SDS011;54349;52.528;19.760;2023-01-10T15:11:03;11.00;;;7.10;;
67500;SDS011;54349;52.528;19.760;2023-01-10T15:13:37;12.40;;;7.70;;
67500;SDS011;54349;52.528;19.760;2023-01-10T15:16:21;12.10;;;7.50;;
67500;SDS011;54349;52.528;19.760;2023-01-10T15:18:51;10.90;;;7.30;;
67500;SDS011;54349;52.528;19.760;2023-01-10T15:21:20;11.10;;;7.40;;
67500;SDS011;54349;52.528;19.760;2023-01-10T15:23:51;11.80;;;7.70;;
67500;SDS011;54349;52.528;19.760;2023-01-10T15:26:26;11.10;;;7.10;;
67500;SDS011;54349;52.528;19.760;2023-01-10T15:29:20;9.40;;;6.50;;
67500;SDS011;54349;52.528;19.760;2023-01-10T15:31:52;11.20;;;7.40;;
67500;SDS011;54349;52.528;19.760;2023-01-10T15:34:27;10.30;;;7.00;;
67500;SDS011;54349;52.528;19.760;2023-01-10T15:36:59;11.50;;;7.70;;
67500;SDS011;54349;52.528;19.760;2023-01-10T15:39:34;13.20;;;8.10;;
67500;SDS011;54349;52.528;19.760;2023-01-10T15:42:09;12.20;;;7.80;;
67500;SDS011;54349;52.528;19.760;2023-01-10T15:44:45;13.10;;;8.00;;
67500;SDS011;54349;52.528;19.760;2023-01-10T15:50:23;11.80;;;7.50;;
67500;SDS011;54349;52.528;19.760;2023-01-10T15:53:08;12.10;;;7.50;;
67500;SDS011;54349;52.528;19.760;2023-01-10T15:55:43;12.20;;;8.00;;
67500;SDS011;54349;52.528;19.760;2023-01-10T16:00:56;12.20;;;8.10;;
67500;SDS011;54349;52.528;19.760;2023-01-10T16:03:34;12.30;;;7.90;;
67500;SDS011;54349;52.528;19.760;2023-01-10T16:06:06;14.10;;;8.90;;
67500;SDS011;54349;52.528;19.760;2023-01-10T16:08:37;13.30;;;8.00;;
67500;SDS011;54349;52.528;19.760;2023-01-10T16:11:13;12.90;;;8.10;;
67500;SDS011;54349;52.528;19.760;2023-01-10T16:14:05;14.60;;;9.00;;
67500;SDS011;54349;52.528;19.760;2023-01-10T16:16:34;13.20;;;8.20;;
67500;SDS011;54349;52.528;19.760;2023-01-10T16:19:02;14.50;;;9.30;;
67500;SDS011;54349;52.528;19.760;2023-01-10T16:21:37;14.10;;;8.60;;
67500;SDS011;54349;52.528;19.760;2023-01-10T16:24:14;13.70;;;8.70;;
67500;SDS011;54349;52.528;19.760;2023-01-10T16:26:47;14.10;;;8.50;;
67500;SDS011;54349;52.528;19.760;2023-01-10T16:29:17;12.40;;;8.30;;
67500;SDS011;54349;52.528;19.760;2023-01-10T16:31:49;15.20;;;9.10;;
67500;SDS011;54349;52.528;19.760;2023-01-10T16:34:19;15.50;;;9.10;;
67500;SDS011;54349;52.528;19.760;2023-01-10T16:36:47;13.90;;;8.80;;
67500;SDS011;54349;52.528;19.760;2023-01-10T16:39:18;14.60;;;9.50;;
67500;SDS011;54349;52.528;19.760;2023-01-10T16:41:48;14.80;;;9.50;;
67500;SDS011;54349;52.528;19.760;2023-01-10T16:44:35;14.40;;;8.90;;
67500;SDS011;54349;52.528;19.760;2023-01-10T16:47:03;14.90;;;9.30;;
67500;SDS011;54349;52.528;19.760;2023-01-10T16:49:33;15.80;;;9.90;;
67500;SDS011;54349;52.528;19.760;2023-01-10T16:52:02;14.00;;;9.30;;
67500;SDS011;54349;52.528;19.760;2023-01-10T16:54:30;14.90;;;9.10;;
67500;SDS011;54349;52.528;19.760;2023-01-10T16:57:02;15.60;;;9.90;;
67500;SDS011;54349;52.528;19.760;2023-01-10T16:59:30;16.50;;;9.80;;
67500;SDS011;54349;52.528;19.760;2023-01-10T17:01:58;15.90;;;9.60;;
67500;SDS011;54349;52.528;19.760;2023-01-10T17:04:28;17.00;;;9.70;;
67500;SDS011;54349;52.528;19.760;2023-01-10T17:06:59;16.40;;;10.20;;
67500;SDS011;54349;52.528;19.760;2023-01-10T17:09:29;15.30;;;9.50;;
67500;SDS011;54349;52.528;19.760;2023-01-10T17:12:06;13.80;;;9.10;;